createdAt,value
2018-01-05T00:00:51.536Z,72.57
2018-01-05T00:03:20.333Z,74.23
2018-01-05T00:05:47.927Z,72.41
2018-01-05T00:08:15.602Z,74.08
2018-01-05T00:10:43.515Z,76.68
2018-01-05T00:13:12.115Z,77.64
2018-01-05T00:15:39.773Z,77.24
2018-01-05T00:18:07.392Z,76.26
2018-01-05T00:20:35.051Z,76.80
2018-01-05T00:23:02.689Z,78.12
2018-01-05T00:25:30.858Z,76.89
2018-01-05T00:27:58.735Z,76.86
2018-01-05T00:30:26.532Z,77.70
2018-01-05T00:32:54.156Z,75.38
2018-01-05T00:35:21.933Z,75.42
2018-01-05T00:37:49.604Z,76.27
2018-01-05T00:40:17.219Z,75.26
2018-01-05T00:42:45.211Z,76.13
2018-01-05T00:45:12.892Z,75.34
2018-01-05T00:47:41.030Z,74.00
2018-01-05T00:50:09.739Z,73.49
2018-01-05T00:52:37.464Z,74.61
2018-01-05T00:55:05.382Z,74.68
2018-01-05T00:57:33.543Z,74.48
2018-01-05T01:00:01.654Z,73.37
2018-01-05T01:02:29.562Z,73.69
2018-01-05T01:04:58.055Z,72.21
2018-01-05T01:07:25.685Z,71.09
2018-01-05T01:09:53.351Z,71.20
2018-01-05T01:12:21.491Z,71.21
2018-01-05T01:14:49.191Z,71.27
2018-01-05T01:17:16.839Z,71.95
2018-01-05T01:19:44.838Z,70.99
2018-01-05T01:22:13.331Z,72.17
2018-01-05T01:24:41.591Z,71.91
2018-01-05T01:27:09.168Z,71.66
2018-01-05T01:29:36.775Z,72.26
2018-01-05T01:32:04.404Z,72.25
2018-01-05T01:34:32.135Z,71.85
2018-01-05T01:36:59.733Z,72.26
2018-01-05T01:39:27.315Z,72.68
2018-01-05T01:41:55.146Z,72.28
2018-01-05T01:44:22.857Z,71.63
2018-01-05T01:46:50.462Z,72.05
2018-01-05T01:49:18.032Z,71.83
2018-01-05T01:51:45.694Z,72.13
2018-01-05T01:54:13.325Z,72.58
2018-01-05T01:56:41.166Z,72.16
2018-01-05T01:59:08.956Z,71.37
2018-01-05T02:01:36.579Z,71.59
2018-01-05T02:04:05.087Z,71.81
2018-01-05T02:06:32.883Z,71.29
2018-01-05T02:09:00.768Z,71.27
2018-01-05T02:11:28.426Z,72.02
2018-01-05T02:13:56.015Z,71.37
2018-01-05T02:16:23.703Z,71.96
2018-01-05T02:18:51.294Z,71.84
2018-01-05T02:21:18.861Z,72.19
2018-01-05T02:23:46.517Z,72.81
2018-01-05T02:26:14.806Z,72.98
2018-01-05T02:28:42.436Z,72.24
2018-01-05T02:31:10.053Z,71.57
2018-01-05T02:33:37.868Z,70.03
2018-01-05T02:36:05.442Z,72.47
2018-01-05T02:38:33.029Z,72.29
2018-01-05T02:41:02.290Z,72.66
2018-01-05T02:43:29.945Z,73.20
2018-01-05T02:45:58.026Z,70.61
2018-01-05T02:48:26.517Z,69.80
2018-01-05T02:50:55.075Z,72.19
2018-01-05T02:53:22.743Z,71.72
2018-01-05T02:55:50.355Z,73.16
2018-01-05T02:58:18.114Z,74.89
2018-01-05T03:00:45.895Z,73.65
2018-01-05T03:03:13.794Z,74.07
2018-01-05T03:05:41.671Z,76.40
2018-01-05T03:08:09.329Z,76.50
2018-01-05T03:10:37.276Z,75.38
2018-01-05T03:13:04.871Z,75.47
2018-01-05T03:15:32.943Z,76.65
2018-01-05T03:18:01.128Z,76.34
2018-01-05T03:20:29.287Z,76.10
2018-01-05T03:22:57.008Z,75.69
2018-01-05T03:25:24.846Z,75.54
2018-01-05T03:27:52.458Z,76.46
2018-01-05T03:30:20.053Z,76.01
2018-01-05T03:32:48.600Z,75.47
2018-01-05T03:35:16.415Z,73.42
2018-01-05T03:37:44.027Z,73.69
2018-01-05T03:40:11.791Z,73.79
2018-01-05T03:42:39.547Z,73.56
2018-01-05T03:45:07.364Z,72.94
2018-01-05T03:47:35.839Z,71.57
2018-01-05T03:50:03.498Z,72.59
2018-01-05T03:52:31.165Z,71.79
2018-01-05T03:54:58.807Z,70.00
2018-01-05T03:57:26.598Z,71.99
2018-01-05T03:59:54.290Z,72.53
2018-01-05T04:02:21.926Z,71.80
2018-01-05T04:04:49.608Z,72.18
2018-01-05T04:07:17.582Z,71.65
2018-01-05T04:09:45.223Z,71.90
2018-01-05T04:12:12.784Z,69.18
2018-01-05T04:14:40.376Z,70.55
2018-01-05T04:17:07.993Z,71.49
2018-01-05T04:19:35.801Z,71.15
2018-01-05T04:22:03.647Z,71.42
2018-01-05T04:24:32.984Z,71.66
2018-01-05T04:27:01.320Z,71.17
2018-01-05T04:29:29.468Z,71.31
2018-01-05T04:31:57.138Z,72.29
2018-01-05T04:34:24.763Z,71.48
2018-01-05T04:36:52.673Z,72.26
2018-01-05T04:39:20.533Z,71.44
2018-01-05T04:41:48.317Z,71.87
2018-01-05T04:44:15.930Z,71.15
2018-01-05T04:46:43.596Z,71.19
2018-01-05T04:49:11.824Z,70.88
2018-01-05T04:51:39.461Z,71.92
2018-01-05T04:54:07.106Z,72.07
2018-01-05T04:56:34.709Z,72.25
2018-01-05T04:59:02.944Z,72.53
2018-01-05T05:01:30.602Z,71.89
2018-01-05T05:03:59.219Z,72.73
2018-01-05T05:06:26.853Z,72.03
2018-01-05T05:08:54.568Z,72.24
2018-01-05T05:11:22.245Z,70.66
2018-01-05T05:13:50.803Z,68.49
2018-01-05T05:16:18.488Z,69.16
2018-01-05T05:18:46.152Z,71.22
2018-01-05T05:21:13.841Z,72.11
2018-01-05T05:23:41.846Z,72.89
2018-01-05T05:26:09.640Z,72.06
2018-01-05T05:28:37.281Z,73.46
2018-01-05T05:31:04.938Z,75.30
2018-01-05T05:33:32.590Z,74.76
2018-01-05T05:36:00.361Z,73.66
2018-01-05T05:38:27.998Z,74.86
2018-01-05T05:40:55.768Z,75.12
2018-01-05T05:43:24.333Z,75.19
2018-01-05T05:45:52.682Z,75.83
2018-01-05T05:48:20.261Z,75.61
2018-01-05T05:50:47.945Z,75.48
2018-01-05T05:53:15.574Z,73.61
2018-01-05T05:55:43.264Z,75.33
2018-01-05T05:58:10.872Z,76.28
2018-01-05T06:00:38.510Z,74.68
2018-01-05T06:03:06.150Z,75.86
2018-01-05T06:05:33.759Z,75.67
2018-01-05T06:08:01.385Z,74.42
2018-01-05T06:10:29.202Z,78.22
2018-01-05T06:12:56.840Z,74.61
2018-01-05T06:15:24.430Z,76.21
2018-01-05T06:17:52.176Z,78.08
2018-01-05T06:20:19.774Z,79.06
2018-01-05T06:22:47.438Z,77.82
2018-01-05T06:25:15.552Z,76.88
2018-01-05T06:27:43.232Z,76.68
2018-01-05T06:30:10.988Z,76.36
2018-01-05T06:32:38.802Z,76.03
2018-01-05T06:35:06.392Z,74.11
2018-01-05T06:37:35.213Z,72.57
2018-01-05T06:40:02.887Z,72.41
2018-01-05T06:42:30.535Z,72.11
2018-01-05T06:44:58.209Z,70.00
2018-01-05T06:47:25.824Z,69.53
2018-01-05T06:49:53.457Z,68.75
2018-01-05T06:52:21.079Z,68.03
2018-01-05T06:54:49.558Z,66.81
2018-01-05T06:57:17.214Z,66.77
2018-01-05T06:59:44.849Z,66.30
2018-01-05T07:02:12.625Z,65.03
2018-01-05T07:04:40.199Z,64.24
2018-01-05T07:07:07.859Z,63.78
2018-01-05T07:09:35.471Z,63.25
2018-01-05T07:12:03.185Z,63.05
2018-01-05T07:14:30.994Z,63.03
2018-01-05T07:16:59.489Z,63.84
2018-01-05T07:19:27.824Z,64.74
2018-01-05T07:21:55.478Z,65.88
2018-01-05T07:24:23.103Z,66.70
2018-01-05T07:26:50.888Z,65.75
2018-01-05T07:29:18.545Z,63.31
2018-01-05T07:31:47.461Z,65.82
2018-01-05T07:34:15.114Z,65.58
2018-01-05T07:36:42.736Z,67.16
2018-01-05T07:39:10.414Z,70.98
2018-01-05T07:41:38.013Z,70.64
2018-01-05T07:44:05.710Z,71.86
2018-01-05T07:46:34.286Z,72.89
2018-01-05T07:49:01.873Z,71.71
2018-01-05T07:51:29.458Z,73.68
2018-01-05T07:53:57.351Z,71.01
2018-01-05T07:56:24.950Z,70.58
2018-01-05T07:58:52.569Z,69.66
2018-01-05T08:01:20.187Z,68.51
2018-01-05T08:03:47.806Z,68.47
2018-01-05T08:06:15.420Z,70.28
2018-01-05T08:08:43.048Z,70.61
2018-01-05T08:11:10.685Z,71.15
2018-01-05T08:13:38.301Z,70.26
2018-01-05T08:16:05.962Z,68.13
2018-01-05T08:18:33.767Z,66.77
2018-01-05T08:21:01.408Z,67.51
2018-01-05T08:23:29.136Z,68.31
2018-01-05T08:25:57.326Z,69.74
2018-01-05T08:28:25.891Z,70.53
2018-01-05T08:30:53.748Z,70.51
2018-01-05T08:33:21.412Z,70.28
2018-01-05T08:35:49.117Z,69.92
2018-01-05T08:38:16.737Z,69.63
2018-01-05T08:40:44.296Z,68.84
2018-01-05T08:43:11.906Z,69.60
2018-01-05T08:45:40.387Z,68.85
2018-01-05T08:48:08.181Z,68.64
2018-01-05T08:50:35.769Z,68.13
2018-01-05T08:53:04.119Z,68.13
2018-01-05T08:55:32.709Z,67.98
2018-01-05T08:58:00.312Z,68.16
2018-01-05T09:00:29.758Z,66.63
2018-01-05T09:02:57.657Z,66.72
2018-01-05T09:05:25.445Z,66.15
2018-01-05T09:07:53.238Z,64.72
2018-01-05T09:10:20.906Z,65.50
2018-01-05T09:12:48.486Z,65.91
2018-01-05T09:15:16.099Z,66.39
2018-01-05T09:17:44.633Z,67.63
2018-01-05T09:20:13.069Z,66.86
2018-01-05T09:22:41.596Z,65.94
2018-01-05T09:25:09.264Z,65.94
2018-01-05T09:27:37.060Z,65.10
2018-01-05T09:30:08.553Z,66.40
2018-01-05T09:32:36.212Z,66.46
2018-01-05T09:35:03.904Z,65.88
2018-01-05T09:37:31.588Z,64.92
2018-01-05T09:39:59.256Z,65.44
2018-01-05T09:42:27.023Z,65.18
2018-01-05T09:44:55.164Z,64.11
2018-01-05T09:47:23.671Z,63.59
2018-01-05T09:49:52.009Z,64.52
2018-01-05T09:52:19.859Z,63.13
2018-01-05T09:54:47.477Z,62.95
2018-01-05T09:57:15.098Z,63.93
2018-01-05T09:59:43.707Z,63.13
2018-01-05T10:04:58.319Z,62.83
2018-01-05T10:07:26.649Z,62.85
2018-01-05T10:09:54.288Z,63.43
2018-01-05T10:12:22.211Z,61.31
2018-01-05T10:14:50.051Z,65.21
2018-01-05T10:17:17.683Z,62.24
2018-01-05T10:19:45.278Z,63.16
2018-01-05T10:22:13.082Z,61.76
2018-01-05T10:24:40.705Z,61.22
2018-01-05T10:27:08.358Z,60.70
2018-01-05T10:29:36.049Z,60.75
2018-01-05T10:32:03.689Z,57.99
2018-01-05T10:34:31.247Z,58.78
2018-01-05T10:36:58.934Z,57.50
2018-01-05T10:39:26.629Z,59.48
2018-01-05T10:41:54.509Z,59.59
2018-01-05T10:44:22.113Z,59.36
2018-01-05T10:46:49.783Z,59.68
2018-01-05T10:49:18.366Z,59.48
2018-01-05T10:51:45.993Z,58.14
2018-01-05T10:54:13.700Z,61.82
2018-01-05T10:56:41.340Z,60.44
2018-01-05T10:59:08.997Z,60.83
2018-01-05T11:01:36.648Z,60.18
2018-01-05T11:04:04.297Z,60.07
2018-01-05T11:06:31.915Z,61.19
2018-01-05T11:08:59.646Z,61.38
2018-01-05T11:11:27.331Z,60.74
2018-01-05T11:13:55.933Z,61.31
2018-01-05T11:16:23.603Z,59.94
2018-01-05T11:18:51.209Z,59.44
2018-01-05T11:21:18.873Z,57.99
2018-01-05T11:23:46.530Z,59.61
2018-01-05T11:26:14.184Z,58.23
2018-01-05T11:28:41.788Z,57.03
2018-01-05T11:31:09.443Z,56.49
2018-01-05T11:33:37.081Z,57.55
2018-01-05T11:36:04.665Z,58.22
2018-01-05T11:38:32.291Z,57.47
2018-01-05T11:40:59.908Z,56.80
2018-01-05T11:43:27.714Z,57.97
2018-01-05T11:45:56.306Z,57.96
2018-01-05T11:48:23.882Z,57.31
2018-01-05T11:50:51.489Z,57.47
2018-01-05T11:53:19.191Z,57.44
2018-01-05T11:55:47.042Z,57.92
2018-01-05T11:58:14.629Z,57.67
2018-01-05T12:00:42.286Z,58.24
2018-01-05T12:03:09.993Z,57.70
2018-01-05T12:05:37.593Z,56.94
2018-01-05T12:08:05.299Z,54.85
2018-01-05T12:10:33.514Z,55.34
2018-01-05T12:13:01.132Z,54.60
2018-01-05T12:15:28.718Z,59.67
2018-01-05T12:17:57.073Z,60.86
2018-01-05T12:20:24.894Z,62.65
2018-01-05T12:22:52.566Z,57.67
2018-01-05T12:25:20.392Z,60.28
2018-01-05T12:27:48.063Z,53.29
2018-01-05T12:30:15.738Z,53.07
2018-01-05T12:32:43.358Z,52.67
2018-01-05T12:35:10.953Z,54.06
2018-01-05T12:37:38.786Z,54.31
2018-01-05T12:40:06.388Z,54.96
2018-01-05T12:42:34.023Z,54.68
2018-01-05T12:45:01.674Z,55.45
2018-01-05T12:47:30.212Z,55.98
2018-01-05T12:49:58.777Z,56.72
2018-01-05T12:52:26.533Z,57.98
2018-01-05T12:54:54.145Z,60.70
2018-01-05T12:57:21.757Z,59.87
2018-01-05T12:59:49.463Z,57.63
2018-01-05T13:02:17.089Z,60.09
2018-01-05T13:04:44.728Z,60.51
2018-01-05T13:07:12.511Z,59.15
2018-01-05T13:09:40.136Z,58.53
2018-01-05T13:12:08.328Z,59.39
2018-01-05T13:14:36.853Z,58.43
2018-01-05T13:17:04.552Z,58.20
2018-01-05T13:19:32.211Z,58.34
2018-01-05T13:21:59.864Z,58.79
2018-01-05T13:24:27.672Z,58.13
2018-01-05T13:26:55.349Z,57.99
2018-01-05T13:29:22.952Z,59.15
2018-01-05T13:31:50.666Z,58.24
2018-01-05T13:34:18.288Z,58.95
2018-01-05T13:36:45.885Z,58.40
2018-01-05T13:39:13.549Z,57.89
2018-01-05T13:41:41.224Z,56.88
2018-01-05T13:44:08.873Z,57.49
2018-01-05T13:46:36.722Z,57.66
2018-01-05T13:49:04.406Z,57.50
2018-01-05T13:51:32.132Z,57.08
2018-01-05T13:53:59.843Z,57.61
2018-01-05T13:56:27.494Z,56.97
2018-01-05T13:58:55.135Z,57.03
2018-01-05T14:01:22.868Z,56.69
2018-01-05T14:03:50.504Z,57.43
2018-01-05T14:06:18.114Z,58.91
2018-01-05T14:08:45.818Z,58.21
2018-01-05T14:11:13.488Z,58.14
2018-01-05T14:13:41.387Z,58.10
2018-01-05T14:16:09.010Z,59.10
2018-01-05T14:18:36.583Z,58.92
2018-01-05T14:21:04.486Z,58.80
2018-01-05T14:23:32.150Z,57.87
2018-01-05T14:25:59.754Z,59.07
2018-01-05T14:28:27.333Z,58.56
2018-01-05T14:30:58.782Z,59.01
2018-01-05T14:33:26.691Z,58.44
2018-01-05T14:35:54.395Z,59.37
2018-01-05T14:38:22.108Z,60.10
2018-01-05T14:40:50.238Z,59.51
2018-01-05T14:43:17.882Z,59.03
2018-01-05T14:45:45.930Z,58.61
2018-01-05T14:48:13.722Z,60.01
2018-01-05T14:50:41.534Z,60.11
2018-01-05T14:53:09.316Z,60.59
2018-01-05T14:55:37.279Z,59.82
2018-01-05T14:58:05.021Z,59.25
2018-01-05T15:00:32.689Z,60.51
2018-01-05T15:03:00.354Z,60.09
2018-01-05T15:05:27.967Z,59.89
2018-01-05T15:07:57.486Z,63.60
2018-01-05T15:10:25.888Z,61.63
2018-01-05T15:12:53.637Z,63.27
2018-01-05T15:15:22.892Z,62.05
2018-01-05T15:17:50.612Z,62.78
2018-01-05T15:20:18.376Z,63.44
2018-01-05T15:22:46.131Z,64.38
2018-01-05T15:25:13.972Z,62.14
2018-01-05T15:27:41.743Z,61.84
2018-01-05T15:30:16.025Z,62.97
2018-01-05T15:32:44.022Z,63.32
2018-01-05T15:35:11.949Z,63.03
2018-01-05T15:37:40.567Z,63.01
2018-01-05T15:40:08.217Z,64.65
2018-01-05T15:42:35.847Z,64.60
2018-01-05T15:45:03.539Z,64.23
2018-01-05T15:47:31.155Z,66.15
2018-01-05T15:49:59.082Z,65.07
2018-01-05T15:52:27.262Z,65.56
2018-01-05T15:54:56.103Z,64.42
2018-01-05T15:57:23.752Z,64.47
2018-01-05T15:59:51.509Z,65.15
2018-01-05T16:02:19.229Z,64.22
2018-01-05T16:04:46.845Z,63.85
2018-01-05T16:07:14.826Z,65.37
2018-01-05T16:09:42.478Z,63.61
2018-01-05T16:12:10.111Z,63.37
2018-01-05T16:14:37.737Z,62.78
2018-01-05T16:17:05.345Z,62.63
2018-01-05T16:19:34.446Z,62.91
2018-01-05T16:22:02.675Z,63.08
2018-01-05T16:24:30.406Z,63.08
2018-01-05T16:26:59.275Z,62.88
2018-01-05T16:29:27.041Z,63.19
2018-01-05T16:31:54.755Z,63.73
2018-01-05T16:34:22.358Z,63.37
2018-01-05T16:36:49.922Z,62.77
2018-01-05T16:39:18.409Z,62.54
2018-01-05T16:41:46.017Z,62.37
2018-01-05T16:44:13.576Z,62.70
2018-01-05T16:46:41.174Z,63.04
2018-01-05T16:49:08.746Z,65.59
2018-01-05T16:51:36.360Z,64.53
2018-01-05T16:54:03.942Z,65.18
2018-01-05T16:56:32.702Z,67.63
2018-01-05T16:59:00.981Z,67.11
2018-01-05T17:01:28.590Z,67.17
2018-01-05T17:03:56.326Z,67.81
2018-01-05T17:06:24.658Z,68.16
2018-01-05T17:08:52.330Z,67.69
2018-01-05T17:11:20.244Z,69.53
2018-01-05T17:13:47.880Z,68.56
2018-01-05T17:16:16.373Z,68.60
2018-01-05T17:18:43.946Z,66.72
2018-01-05T17:21:11.583Z,66.98
2018-01-05T17:23:39.374Z,68.33
2018-01-05T17:26:07.028Z,66.65
2018-01-05T17:28:35.180Z,67.24
2018-01-05T17:31:02.853Z,67.63
2018-01-05T17:33:30.430Z,68.84
2018-01-05T17:35:58.060Z,68.75
2018-01-05T17:38:26.600Z,68.04
2018-01-05T17:40:54.670Z,67.99
2018-01-05T17:43:22.285Z,67.54
2018-01-05T17:45:50.477Z,68.85
2018-01-05T17:48:18.157Z,68.12
2018-01-05T17:53:31.963Z,69.30
2018-01-05T17:56:00.750Z,69.31
2018-01-05T18:01:03.668Z,69.04
2018-01-05T18:03:34.098Z,67.95
2018-01-05T18:06:02.012Z,68.91
2018-01-05T18:08:32.969Z,69.55
2018-01-05T18:11:00.600Z,70.26
2018-01-05T18:13:28.264Z,71.39
2018-01-05T18:15:56.119Z,68.57
2018-01-05T18:18:24.791Z,68.02
2018-01-05T18:20:57.273Z,69.36
2018-01-05T18:23:25.406Z,68.73
2018-01-05T18:25:53.736Z,68.12
2018-01-05T18:28:24.367Z,69.46
2018-01-05T18:30:55.557Z,69.22
2018-01-05T18:33:23.416Z,68.50
2018-01-05T18:35:51.154Z,67.58
2018-01-05T18:38:19.614Z,67.39
2018-01-05T18:40:53.546Z,68.75
2018-01-05T18:43:25.676Z,69.31
2018-01-05T18:45:56.110Z,67.96
2018-01-05T18:48:23.755Z,68.85
2018-01-05T18:50:53.172Z,68.29
2018-01-05T18:53:21.182Z,68.90
2018-01-05T18:55:48.796Z,70.89
2018-01-05T18:58:16.457Z,70.52
2018-01-05T19:00:44.369Z,70.29
2018-01-05T19:03:12.253Z,69.50
2018-01-05T19:05:40.652Z,68.89
2018-01-05T19:08:12.552Z,69.93
2018-01-05T19:10:51.026Z,69.56
2018-01-05T19:13:19.142Z,68.50
2018-01-05T19:15:48.182Z,69.56
2018-01-05T19:18:18.853Z,70.29
2018-01-05T19:20:51.951Z,69.23
2018-01-05T19:23:26.510Z,69.21
2018-01-05T19:25:54.277Z,67.92
2018-01-05T19:28:22.084Z,67.29
2018-01-05T19:30:51.881Z,67.14
2018-01-05T19:33:20.962Z,66.75
2018-01-05T19:35:50.865Z,67.10
2018-01-05T19:38:21.467Z,67.51
2018-01-05T19:40:51.294Z,68.00
2018-01-05T19:43:20.383Z,67.58
2018-01-05T19:45:48.100Z,67.52
2018-01-05T19:48:16.801Z,67.07
2018-01-05T19:50:44.879Z,68.10
2018-01-05T19:53:14.587Z,68.02
2018-01-05T19:55:42.166Z,67.56
2018-01-05T19:58:09.931Z,67.63
2018-01-05T20:00:37.901Z,67.85
2018-01-05T20:03:05.600Z,67.49
2018-01-05T20:05:33.248Z,74.60
2018-01-05T20:08:02.182Z,68.84
2018-01-05T20:10:30.024Z,68.89
2018-01-05T20:12:58.392Z,68.59
2018-01-05T20:15:26.132Z,67.81
2018-01-05T20:17:54.612Z,69.02
2018-01-05T20:20:25.116Z,68.92
2018-01-05T20:22:52.811Z,68.44
2018-01-05T20:25:21.265Z,68.34
2018-01-05T20:27:48.953Z,68.06
2018-01-05T20:30:16.624Z,68.88
2018-01-05T20:32:44.565Z,68.91
2018-01-05T20:35:12.169Z,68.92
2018-01-05T20:37:39.936Z,70.87
2018-01-05T20:40:07.574Z,70.68
2018-01-05T20:42:36.073Z,69.05
2018-01-05T20:45:03.833Z,68.19
2018-01-05T20:47:31.509Z,68.86
2018-01-05T20:49:59.823Z,69.23
2018-01-05T20:52:28.255Z,70.98
2018-01-05T20:54:55.849Z,69.61
2018-01-05T20:57:23.654Z,70.03
2018-01-05T20:59:51.400Z,70.18
2018-01-05T21:02:19.055Z,69.13
2018-01-05T21:04:47.555Z,68.97
2018-01-05T21:07:15.250Z,67.81
2018-01-05T21:09:43.395Z,67.24
2018-01-05T21:12:11.070Z,67.94
2018-01-05T21:14:38.705Z,69.09
2018-01-05T21:17:06.484Z,69.24
2018-01-05T21:19:34.520Z,70.28
2018-01-05T21:22:02.143Z,70.83
2018-01-05T21:24:30.024Z,68.82
2018-01-05T21:26:58.367Z,69.18
2018-01-05T21:29:26.386Z,69.85
2018-01-05T21:31:53.996Z,70.72
2018-01-05T21:34:21.649Z,69.97
2018-01-05T21:36:49.487Z,70.60
2018-01-05T21:39:17.296Z,70.45
2018-01-05T21:41:44.918Z,70.66
2018-01-05T21:44:13.592Z,70.43
2018-01-05T21:46:41.206Z,67.90
2018-01-05T21:49:08.983Z,69.39
2018-01-05T21:51:36.655Z,67.86
2018-01-05T21:54:04.307Z,68.67
2018-01-05T21:56:32.106Z,67.99
2018-01-05T21:58:59.709Z,68.47
2018-01-05T22:01:27.354Z,68.86
2018-01-05T22:03:55.178Z,69.41
2018-01-05T22:06:24.029Z,69.71
2018-01-05T22:08:53.230Z,68.94
2018-01-05T22:11:21.666Z,69.10
2018-01-05T22:13:49.377Z,71.28
2018-01-05T22:16:19.171Z,70.52
2018-01-05T22:18:46.862Z,70.19
2018-01-05T22:21:14.606Z,68.98
2018-01-05T22:23:42.541Z,68.78
2018-01-05T22:26:10.403Z,69.06
2018-01-05T22:28:38.412Z,70.53
2018-01-05T22:31:06.991Z,70.30
2018-01-05T22:33:35.508Z,70.41
2018-01-05T22:36:03.166Z,69.55
2018-01-05T22:38:30.876Z,69.31
2018-01-05T22:40:58.514Z,69.75
2018-01-05T22:43:26.289Z,68.52
2018-01-05T22:45:54.713Z,67.98
2018-01-05T22:48:22.504Z,69.10
2018-01-05T22:50:50.063Z,68.83
2018-01-05T22:53:17.681Z,69.68
2018-01-05T22:55:46.131Z,69.18
2018-01-05T22:58:13.861Z,69.52
2018-01-05T23:00:42.254Z,69.42
2018-01-05T23:03:09.872Z,69.95
2018-01-05T23:05:37.529Z,70.93
2018-01-05T23:10:41.057Z,71.41
2018-01-05T23:13:08.833Z,71.31
2018-01-05T23:15:36.607Z,71.07
2018-01-05T23:18:04.184Z,70.70
2018-01-05T23:20:31.942Z,72.18
2018-01-05T23:22:59.630Z,70.73
2018-01-05T23:25:28.542Z,70.03
2018-01-05T23:27:56.710Z,71.87
2018-01-05T23:30:24.538Z,71.56
2018-01-05T23:32:52.332Z,70.19
2018-01-05T23:35:19.940Z,71.34
2018-01-05T23:37:47.932Z,70.53
2018-01-05T23:40:17.221Z,70.79
2018-01-05T23:42:46.460Z,71.13
2018-01-05T23:45:15.077Z,71.47
2018-01-05T23:47:42.859Z,70.83
2018-01-05T23:50:10.529Z,72.87
2018-01-05T23:52:38.317Z,72.66
2018-01-05T23:55:05.906Z,71.93
2018-01-05T23:57:34.063Z,71.87
